Clones, Ireland
Current Conditions -  °F | °C
As of 5:20 AM on Thursday 29 Jan 2015 (Local Time) from EGAA Reporting Station
Scattered Clouds Scattered Clouds  
Wind Chill: 22°   Ceiling: Unl
Heat Index: 32°   Visibility: 6mi
Dew Point: 32°   Wind: 14mph
Humidity: 100%   Direction: 250°WSW
Pressure: 29.09"   Gusts: NA
Location:  54.19°N, 7.24°W
Report Text: EGAA 290420Z AUTO 25012KT 9999 FEW002/// SCT019/// 00/00 Q0985 REFZRA
Loading
Personal Weather Stations






























Interactive Weather Map New forecast layout! Learn more

10-Day Weather Forecast

Advertisements
Track Severe Weather on mobile